MV Hermann Scan — V2CM8 — position and weather

sailwx.info

Track history (hours):
 
Tides and Currents Weather Stations Pressure Air Temp Water Temp Dewpoint Dewpoint Depression Visibility Wind Speed Wind Dir Waves Ship Positions

MV Hermann Scan

Last reported at 2018-Jun-24 06:28 UTC. Time now 2018-Jun-24 09:11 UTC.
Position N 36°60' E 002°54'.

Length 118 m; draft 7.3 m.

Type: Cargo ship. MMSI: 305046000.

Date/timePositionNaut miles runAvg speedWind from/ knotsBaromVisibWave heightAir tempDewpointWater temp
2018-Jun-24 06:28N 36°60' E 002°54'611.5
2018-Jun-24 05:58N 36°59' E 002°47'6711.7
2018-Jun-24 00:14N 36°49' E 001°25'4411.4
2018-Jun-23 20:22N 36°43' E 000°30'410.9
2018-Jun-23 20:00N 36°42' E 000°25'511.0
2018-Jun-23 19:30N 36°41' E 000°19'610.9
2018-Jun-23 19:00N 36°40' E 000°12'2611.1
2018-Jun-23 16:39N 36°36' W 000°20'511.6
2018-Jun-23 16:14N 36°35' W 000°26'311.7
2018-Jun-23 15:59N 36°35' W 000°30'611.4
2018-Jun-23 15:28N 36°34' W 000°37'511.5
2018-Jun-23 14:59N 36°33' W 000°44'611.6
2018-Jun-23 14:29N 36°32' W 000°51'423 8.9
2018-Jun-21 14:47N 37°04' W 009°38'312.5
2018-Jun-21 14:30N 37°08' W 009°39'612.6
2018-Jun-21 14:01N 37°14' W 009°40'612.7
2018-Jun-21 13:31N 37°20' W 009°42'812.6
2018-Jun-21 12:55N 37°27' W 009°44'912.5
2018-Jun-21 12:13N 37°36' W 009°46'512.2
2018-Jun-21 11:49N 37°41' W 009°48'412.1
2018-Jun-21 11:29N 37°45' W 009°49'712.3
2018-Jun-21 10:54N 37°52' W 009°51'712.2
2018-Jun-21 10:18N 37°59' W 009°53'412.5
2018-Jun-21 10:00N 38°02' W 009°54'612.1
2018-Jun-21 09:31N 38°08' W 009°56'612.1
2018-Jun-21 09:00N 38°14' W 009°58'612.1
2018-Jun-21 08:31N 38°20' W 009°59'612.1
2018-Jun-21 08:01N 38°26' W 010°01'612.1
2018-Jun-21 07:30N 38°32' W 010°03'612.4
2018-Jun-21 07:00N 38°38' W 010°05'612.4
2018-Jun-21 06:31N 38°44' W 010°06'612.2
2018-Jun-21 06:00N 38°50' W 010°05'612.4
2018-Jun-21 05:31N 38°56' W 010°05'612.0
2018-Jun-21 05:00N 39°02' W 010°05'612.3
2018-Jun-21 04:31N 39°08' W 010°06'612.2
2018-Jun-21 04:00N 39°14' W 010°06'612.2
2018-Jun-21 03:29N 39°21' W 010°06'53411.7
2018-Jun-19 05:58N 47°53' W 006°35'1110.9
2018-Jun-19 04:58N 48°03' W 006°28'1211.8
2018-Jun-19 03:58N 48°13' W 006°20'1412.5
2018-Jun-19 02:53N 48°25' W 006°10'1213.2
2018-Jun-19 01:58N 48°36' W 006°02'1113.4
2018-Jun-19 01:08N 48°46' W 005°53'213.4
2018-Jun-19 00:58N 48°47' W 005°52'613.2
2018-Jun-19 00:29N 48°53' W 005°46'1112.4
2018-Jun-18 23:38N 48°59' W 005°33'811.8
2018-Jun-18 22:58N 49°03' W 005°23'511.4
2018-Jun-18 22:30N 49°06' W 005°16'610.7
2018-Jun-18 21:59N 49°09' W 005°09'3110.0
2018-Jun-18 18:53N 49°23' W 004°27'2211.1
2018-Jun-18 16:53N 49°36' W 003°59'812.4
2018-Jun-18 16:13N 49°40' W 003°48'412.6
2018-Jun-18 15:56N 49°42' W 003°43'1112.7
2018-Jun-18 15:04N 49°47' W 003°28'112.4
2018-Jun-18 15:00N 49°48' W 003°27'612.3
2018-Jun-18 14:31N 49°50' W 003°19'612.2
2018-Jun-18 14:00N 49°53' W 003°11'611.7
2018-Jun-18 13:30N 49°57' W 003°03'611.1
2018-Jun-18 13:00N 49°59' W 002°56'510.3
2018-Jun-18 12:30N 50°01' W 002°48'5 9.8
2018-Jun-18 12:00N 50°02' W 002°41'5 9.4
2018-Jun-18 11:30N 50°04' W 002°34'4 9.0
2018-Jun-18 11:01N 50°05' W 002°27'5 8.9
2018-Jun-18 10:30N 50°06' W 002°20'5 9.0
2018-Jun-18 09:57N 50°08' W 002°13'5 9.5
2018-Jun-18 09:25N 50°09' W 002°05'410.0
2018-Jun-18 09:00N 50°10' W 001°59'510.9
2018-Jun-18 08:30N 50°12' W 001°51'911.8
2018-Jun-18 07:44N 50°14' W 001°37'512.9
2018-Jun-18 07:21N 50°16' W 001°30'513.6
2018-Jun-18 06:59N 50°17' W 001°22'714.3
2018-Jun-18 06:30N 50°19' W 001°12'815.2
2018-Jun-18 06:00N 50°21' W 001°00'815.3
2018-Jun-18 05:30N 50°23' W 000°49'714.4
2018-Jun-18 05:01N 50°25' W 000°38'714.0
2018-Jun-18 04:29N 50°27' W 000°27'1612.9
2018-Jun-18 03:13N 50°32' W 000°02'312.1
2018-Jun-18 02:57N 50°33' E 000°02'611.6
2018-Jun-18 02:25N 50°34' E 000°12'511.1
2018-Jun-18 02:00N 50°36' E 000°19'510.6
2018-Jun-18 01:30N 50°37' E 000°27'510.2
2018-Jun-18 01:00N 50°39' E 000°34'510.2
2018-Jun-18 00:30N 50°42' E 000°41'510.0
2018-Jun-18 00:00N 50°45' E 000°47'510.5
2018-Jun-17 23:31N 50°48' E 000°54'611.3
2018-Jun-17 23:00N 50°51' E 001°02'612.1
2018-Jun-17 22:30N 50°55' E 001°09'713.1
2018-Jun-17 22:01N 50°59' E 001°17'713.7
2018-Jun-17 21:30N 51°03' E 001°25'713.7
2018-Jun-17 21:00N 51°08' E 001°34'713.0
2018-Jun-17 20:30N 51°12' E 001°42'612.4
2018-Jun-17 20:00N 51°16' E 001°48'611.4
2018-Jun-17 19:30N 51°22' E 001°52'510.6
2018-Jun-17 19:01N 51°27' E 001°55'510.0
2018-Jun-17 18:31N 51°31' E 001°60'5 9.7
2018-Jun-17 18:00N 51°34' E 002°05'5 9.6
2018-Jun-17 17:30N 51°37' E 002°10'5 9.2
2018-Jun-17 17:01N 51°41' E 002°15'5 9.2
2018-Jun-17 16:31N 51°44' E 002°20'5 9.3
2018-Jun-17 16:00N 51°48' E 002°25'5 9.6
2018-Jun-17 15:30N 51°52' E 002°31'910.5
2018-Jun-17 14:36N 51°58' E 002°42'3212.5
2018-Jun-17 12:00N 52°24' E 003°14'9011.3
2018-Jun-17 04:05N 53°32' E 004°51'212.5
2018-Jun-17 03:55N 53°33' E 004°54'712.7
2018-Jun-17 03:23N 53°35' E 005°05'9811.4
2018-Jun-16 18:51N 54°03' E 007°44'1 1.6
2018-Jun-16 18:19N 54°03' E 007°45'0 1.1
2018-Jun-16 18:00N 54°03' E 007°46'1 0.9
2018-Jun-16 17:24N 54°03' E 007°46'1112.0
2018-Jun-16 16:28N 54°01' E 008°05'612.0
2018-Jun-16 16:00N 54°00' E 008°15'714.0
2018-Jun-16 15:31N 53°59' E 008°26'713.5
2018-Jun-16 15:00N 53°57' E 008°37'611.5
2018-Jun-16 14:30N 53°53' E 008°43'4 8.8
2018-Jun-16 14:00N 53°50' E 008°49'5 9.5
2018-Jun-16 13:30N 53°51' E 008°57'5 9.2
2018-Jun-16 13:00N 53°52' E 009°05'3 5.1
2018-Jun-16 12:30N 53°54' E 009°09'0 0.0
2018-Jun-16 12:00N 53°54' E 009°09'0 0.2
2018-Jun-16 11:30N 53°54' E 009°09'1 1.0
2018-Jun-16 11:00N 53°54' E 009°09'0 0.8
2018-Jun-16 10:30N 53°54' E 009°10'3 6.9
2018-Jun-16 10:00N 53°57' E 009°14'4 8.3
2018-Jun-16 09:28N 54°01' E 009°18'2 3.8
2018-Jun-16 08:59N 54°02' E 009°18'1 2.0
2018-Jun-16 08:30N 54°03' E 009°18'19 0.8
2018-Jun-15 08:12N 54°17' E 009°40'0 0.0
2018-Jun-15 08:00N 54°17' E 009°40'0 0.0
2018-Jun-15 07:30N 54°17' E 009°40'0 0.0
2018-Jun-15 07:00N 54°17' E 009°40'0 0.0
2018-Jun-15 06:24N 54°17' E 009°40'0 0.0
2018-Jun-15 06:00N 54°17' E 009°40'0 0.0
2018-Jun-15 05:30N 54°17' E 009°40'0 0.0
2018-Jun-15 05:00N 54°17' E 009°40'0 0.0
2018-Jun-15 04:30N 54°17' E 009°40'0 0.0
2018-Jun-15 04:00N 54°17' E 009°40'0 0.0
2018-Jun-15 03:30N 54°17' E 009°40'0 0.0
2018-Jun-15 03:00N 54°17' E 009°40'0 0.0
2018-Jun-15 02:30N 54°17' E 009°40'0 0.0
2018-Jun-15 02:00N 54°17' E 009°40'0 0.0
2018-Jun-15 01:30N 54°17' E 009°40'0 0.0
2018-Jun-15 01:00N 54°17' E 009°40'0 0.0
2018-Jun-15 00:30N 54°17' E 009°40'0 0.0
2018-Jun-15 00:00N 54°17' E 009°40'0 0.0
2018-Jun-14 23:30N 54°17' E 009°40'0 0.0
2018-Jun-14 23:00N 54°17' E 009°40'0 0.0
2018-Jun-14 22:30N 54°17' E 009°40'0 0.0
2018-Jun-14 22:00N 54°17' E 009°40'0 0.0
2018-Jun-14 21:30N 54°17' E 009°40'0 0.0
2018-Jun-14 21:00N 54°17' E 009°40'0 0.0
2018-Jun-14 20:27N 54°17' E 009°40'0 0.0
2018-Jun-14 20:00N 54°17' E 009°40'0 0.0
2018-Jun-14 19:30N 54°17' E 009°40'0 0.0
2018-Jun-14 19:00N 54°17' E 009°40'0 0.0
2018-Jun-14 18:30N 54°17' E 009°40'0 0.0
2018-Jun-14 18:00N 54°17' E 009°40'0 0.0
2018-Jun-14 17:30N 54°17' E 009°40'0 0.0
2018-Jun-14 16:57N 54°17' E 009°40'0 0.0
2018-Jun-14 16:30N 54°17' E 009°40'0 0.0
2018-Jun-14 16:00N 54°17' E 009°40'0 0.0
2018-Jun-14 15:30N 54°17' E 009°40'0 0.0
2018-Jun-14 15:00N 54°17' E 009°40'0 0.0
2018-Jun-14 14:30N 54°17' E 009°40'0 0.0
2018-Jun-14 14:00N 54°17' E 009°40'0 0.0
2018-Jun-14 13:30N 54°17' E 009°40'0 0.0
2018-Jun-14 13:00N 54°17' E 009°40'0 0.0
2018-Jun-14 12:30N 54°17' E 009°40'0 0.0
2018-Jun-14 11:57N 54°17' E 009°40'0 0.0
2018-Jun-14 11:30N 54°17' E 009°40'0 0.0
2018-Jun-14 11:00N 54°17' E 009°40'0 0.0
2018-Jun-14 10:30N 54°17' E 009°40'0 0.0
2018-Jun-14 10:00N 54°17' E 009°40'0 0.0
2018-Jun-14 09:30N 54°17' E 009°40'0 0.0
2018-Jun-14 09:00N 54°17' E 009°40'0 0.0
2018-Jun-14 08:30N 54°17' E 009°40'0 0.0
2018-Jun-14 08:00N 54°17' E 009°40'0 0.0
2018-Jun-14 07:30N 54°17' E 009°40'0 0.0
2018-Jun-14 07:00N 54°17' E 009°40'0 0.0
2018-Jun-14 06:30N 54°17' E 009°40'  
Track history (hours):
 
Tides and Currents Weather Stations Pressure Air Temp Water Temp Dewpoint Dewpoint Depression Visibility Wind Speed Wind Dir Waves Ship Positions

MV Hermann Scan

Last reported at 2018-Jun-24 06:28 UTC. Time now 2018-Jun-24 09:11 UTC.
Position N 36°60' E 002°54'.

Length 118 m; draft 7.3 m.

Type: Cargo ship. MMSI: 305046000.

Date/timePositionNaut miles runAvg speedWind from/ knotsBaromVisibWave heightAir tempDewpointWater temp
2018-Jun-24 06:28N 36°60' E 002°54'611.5
2018-Jun-24 05:58N 36°59' E 002°47'6711.7
2018-Jun-24 00:14N 36°49' E 001°25'4411.4
2018-Jun-23 20:22N 36°43' E 000°30'410.9
2018-Jun-23 20:00N 36°42' E 000°25'511.0
2018-Jun-23 19:30N 36°41' E 000°19'610.9
2018-Jun-23 19:00N 36°40' E 000°12'2611.1
2018-Jun-23 16:39N 36°36' W 000°20'511.6
2018-Jun-23 16:14N 36°35' W 000°26'311.7
2018-Jun-23 15:59N 36°35' W 000°30'611.4
2018-Jun-23 15:28N 36°34' W 000°37'511.5
2018-Jun-23 14:59N 36°33' W 000°44'611.6
2018-Jun-23 14:29N 36°32' W 000°51'423 8.9
2018-Jun-21 14:47N 37°04' W 009°38'312.5
2018-Jun-21 14:30N 37°08' W 009°39'612.6
2018-Jun-21 14:01N 37°14' W 009°40'612.7
2018-Jun-21 13:31N 37°20' W 009°42'812.6
2018-Jun-21 12:55N 37°27' W 009°44'912.5
2018-Jun-21 12:13N 37°36' W 009°46'512.2
2018-Jun-21 11:49N 37°41' W 009°48'412.1
2018-Jun-21 11:29N 37°45' W 009°49'712.3
2018-Jun-21 10:54N 37°52' W 009°51'712.2
2018-Jun-21 10:18N 37°59' W 009°53'412.5
2018-Jun-21 10:00N 38°02' W 009°54'612.1
2018-Jun-21 09:31N 38°08' W 009°56'612.1
2018-Jun-21 09:00N 38°14' W 009°58'612.1
2018-Jun-21 08:31N 38°20' W 009°59'612.1
2018-Jun-21 08:01N 38°26' W 010°01'612.1
2018-Jun-21 07:30N 38°32' W 010°03'612.4
2018-Jun-21 07:00N 38°38' W 010°05'612.4
2018-Jun-21 06:31N 38°44' W 010°06'612.2
2018-Jun-21 06:00N 38°50' W 010°05'612.4
2018-Jun-21 05:31N 38°56' W 010°05'612.0
2018-Jun-21 05:00N 39°02' W 010°05'612.3
2018-Jun-21 04:31N 39°08' W 010°06'612.2
2018-Jun-21 04:00N 39°14' W 010°06'612.2
2018-Jun-21 03:29N 39°21' W 010°06'53411.7
2018-Jun-19 05:58N 47°53' W 006°35'1110.9
2018-Jun-19 04:58N 48°03' W 006°28'1211.8
2018-Jun-19 03:58N 48°13' W 006°20'1412.5
2018-Jun-19 02:53N 48°25' W 006°10'1213.2
2018-Jun-19 01:58N 48°36' W 006°02'1113.4
2018-Jun-19 01:08N 48°46' W 005°53'213.4
2018-Jun-19 00:58N 48°47' W 005°52'613.2
2018-Jun-19 00:29N 48°53' W 005°46'1112.4
2018-Jun-18 23:38N 48°59' W 005°33'811.8
2018-Jun-18 22:58N 49°03' W 005°23'511.4
2018-Jun-18 22:30N 49°06' W 005°16'610.7
2018-Jun-18 21:59N 49°09' W 005°09'3110.0
2018-Jun-18 18:53N 49°23' W 004°27'2211.1
2018-Jun-18 16:53N 49°36' W 003°59'812.4
2018-Jun-18 16:13N 49°40' W 003°48'412.6
2018-Jun-18 15:56N 49°42' W 003°43'1112.7
2018-Jun-18 15:04N 49°47' W 003°28'112.4
2018-Jun-18 15:00N 49°48' W 003°27'612.3
2018-Jun-18 14:31N 49°50' W 003°19'612.2
2018-Jun-18 14:00N 49°53' W 003°11'611.7
2018-Jun-18 13:30N 49°57' W 003°03'611.1
2018-Jun-18 13:00N 49°59' W 002°56'510.3
2018-Jun-18 12:30N 50°01' W 002°48'5 9.8
2018-Jun-18 12:00N 50°02' W 002°41'5 9.4
2018-Jun-18 11:30N 50°04' W 002°34'4 9.0
2018-Jun-18 11:01N 50°05' W 002°27'5 8.9
2018-Jun-18 10:30N 50°06' W 002°20'5 9.0
2018-Jun-18 09:57N 50°08' W 002°13'5 9.5
2018-Jun-18 09:25N 50°09' W 002°05'410.0
2018-Jun-18 09:00N 50°10' W 001°59'510.9
2018-Jun-18 08:30N 50°12' W 001°51'911.8
2018-Jun-18 07:44N 50°14' W 001°37'512.9
2018-Jun-18 07:21N 50°16' W 001°30'513.6
2018-Jun-18 06:59N 50°17' W 001°22'714.3
2018-Jun-18 06:30N 50°19' W 001°12'815.2
2018-Jun-18 06:00N 50°21' W 001°00'815.3
2018-Jun-18 05:30N 50°23' W 000°49'714.4
2018-Jun-18 05:01N 50°25' W 000°38'714.0
2018-Jun-18 04:29N 50°27' W 000°27'1612.9
2018-Jun-18 03:13N 50°32' W 000°02'312.1
2018-Jun-18 02:57N 50°33' E 000°02'611.6
2018-Jun-18 02:25N 50°34' E 000°12'511.1
2018-Jun-18 02:00N 50°36' E 000°19'510.6
2018-Jun-18 01:30N 50°37' E 000°27'510.2
2018-Jun-18 01:00N 50°39' E 000°34'510.2
2018-Jun-18 00:30N 50°42' E 000°41'510.0
2018-Jun-18 00:00N 50°45' E 000°47'510.5
2018-Jun-17 23:31N 50°48' E 000°54'611.3
2018-Jun-17 23:00N 50°51' E 001°02'612.1
2018-Jun-17 22:30N 50°55' E 001°09'713.1
2018-Jun-17 22:01N 50°59' E 001°17'713.7
2018-Jun-17 21:30N 51°03' E 001°25'713.7
2018-Jun-17 21:00N 51°08' E 001°34'713.0
2018-Jun-17 20:30N 51°12' E 001°42'612.4
2018-Jun-17 20:00N 51°16' E 001°48'611.4
2018-Jun-17 19:30N 51°22' E 001°52'510.6
2018-Jun-17 19:01N 51°27' E 001°55'510.0
2018-Jun-17 18:31N 51°31' E 001°60'5 9.7
2018-Jun-17 18:00N 51°34' E 002°05'5 9.6
2018-Jun-17 17:30N 51°37' E 002°10'5 9.2
2018-Jun-17 17:01N 51°41' E 002°15'5 9.2
2018-Jun-17 16:31N 51°44' E 002°20'5 9.3
2018-Jun-17 16:00N 51°48' E 002°25'5 9.6
2018-Jun-17 15:30N 51°52' E 002°31'910.5
2018-Jun-17 14:36N 51°58' E 002°42'3212.5
2018-Jun-17 12:00N 52°24' E 003°14'9011.3
2018-Jun-17 04:05N 53°32' E 004°51'212.5
2018-Jun-17 03:55N 53°33' E 004°54'712.7
2018-Jun-17 03:23N 53°35' E 005°05'9811.4
2018-Jun-16 18:51N 54°03' E 007°44'1 1.6
2018-Jun-16 18:19N 54°03' E 007°45'0 1.1
2018-Jun-16 18:00N 54°03' E 007°46'1 0.9
2018-Jun-16 17:24N 54°03' E 007°46'1112.0
2018-Jun-16 16:28N 54°01' E 008°05'612.0
2018-Jun-16 16:00N 54°00' E 008°15'714.0
2018-Jun-16 15:31N 53°59' E 008°26'713.5
2018-Jun-16 15:00N 53°57' E 008°37'611.5
2018-Jun-16 14:30N 53°53' E 008°43'4 8.8
2018-Jun-16 14:00N 53°50' E 008°49'5 9.5
2018-Jun-16 13:30N 53°51' E 008°57'5 9.2
2018-Jun-16 13:00N 53°52' E 009°05'3 5.1
2018-Jun-16 12:30N 53°54' E 009°09'0 0.0
2018-Jun-16 12:00N 53°54' E 009°09'0 0.2
2018-Jun-16 11:30N 53°54' E 009°09'1 1.0
2018-Jun-16 11:00N 53°54' E 009°09'0 0.8
2018-Jun-16 10:30N 53°54' E 009°10'3 6.9
2018-Jun-16 10:00N 53°57' E 009°14'4 8.3
2018-Jun-16 09:28N 54°01' E 009°18'2 3.8
2018-Jun-16 08:59N 54°02' E 009°18'1 2.0
2018-Jun-16 08:30N 54°03' E 009°18'19 0.8
2018-Jun-15 08:12N 54°17' E 009°40'0 0.0
2018-Jun-15 08:00N 54°17' E 009°40'0 0.0
2018-Jun-15 07:30N 54°17' E 009°40'0 0.0
2018-Jun-15 07:00N 54°17' E 009°40'0 0.0
2018-Jun-15 06:24N 54°17' E 009°40'0 0.0
2018-Jun-15 06:00N 54°17' E 009°40'0 0.0
2018-Jun-15 05:30N 54°17' E 009°40'0 0.0
2018-Jun-15 05:00N 54°17' E 009°40'0 0.0
2018-Jun-15 04:30N 54°17' E 009°40'0 0.0
2018-Jun-15 04:00N 54°17' E 009°40'0 0.0
2018-Jun-15 03:30N 54°17' E 009°40'0 0.0
2018-Jun-15 03:00N 54°17' E 009°40'0 0.0
2018-Jun-15 02:30N 54°17' E 009°40'0 0.0
2018-Jun-15 02:00N 54°17' E 009°40'0 0.0
2018-Jun-15 01:30N 54°17' E 009°40'0 0.0
2018-Jun-15 01:00N 54°17' E 009°40'0 0.0
2018-Jun-15 00:30N 54°17' E 009°40'0 0.0
2018-Jun-15 00:00N 54°17' E 009°40'0 0.0
2018-Jun-14 23:30N 54°17' E 009°40'0 0.0
2018-Jun-14 23:00N 54°17' E 009°40'0 0.0
2018-Jun-14 22:30N 54°17' E 009°40'0 0.0
2018-Jun-14 22:00N 54°17' E 009°40'0 0.0
2018-Jun-14 21:30N 54°17' E 009°40'0 0.0
2018-Jun-14 21:00N 54°17' E 009°40'0 0.0
2018-Jun-14 20:27N 54°17' E 009°40'0 0.0
2018-Jun-14 20:00N 54°17' E 009°40'0 0.0
2018-Jun-14 19:30N 54°17' E 009°40'0 0.0
2018-Jun-14 19:00N 54°17' E 009°40'0 0.0
2018-Jun-14 18:30N 54°17' E 009°40'0 0.0
2018-Jun-14 18:00N 54°17' E 009°40'0 0.0
2018-Jun-14 17:30N 54°17' E 009°40'0 0.0
2018-Jun-14 16:57N 54°17' E 009°40'0 0.0
2018-Jun-14 16:30N 54°17' E 009°40'0 0.0
2018-Jun-14 16:00N 54°17' E 009°40'0 0.0
2018-Jun-14 15:30N 54°17' E 009°40'0 0.0
2018-Jun-14 15:00N 54°17' E 009°40'0 0.0
2018-Jun-14 14:30N 54°17' E 009°40'0 0.0
2018-Jun-14 14:00N 54°17' E 009°40'0 0.0
2018-Jun-14 13:30N 54°17' E 009°40'0 0.0
2018-Jun-14 13:00N 54°17' E 009°40'0 0.0
2018-Jun-14 12:30N 54°17' E 009°40'0 0.0
2018-Jun-14 11:57N 54°17' E 009°40'0 0.0
2018-Jun-14 11:30N 54°17' E 009°40'0 0.0
2018-Jun-14 11:00N 54°17' E 009°40'0 0.0
2018-Jun-14 10:30N 54°17' E 009°40'0 0.0
2018-Jun-14 10:00N 54°17' E 009°40'0 0.0
2018-Jun-14 09:30N 54°17' E 009°40'0 0.0
2018-Jun-14 09:00N 54°17' E 009°40'0 0.0
2018-Jun-14 08:30N 54°17' E 009°40'0 0.0
2018-Jun-14 08:00N 54°17' E 009°40'0 0.0
2018-Jun-14 07:30N 54°17' E 009°40'0 0.0
2018-Jun-14 07:00N 54°17' E 009°40'0 0.0
2018-Jun-14 06:30N 54°17' E 009°40'  

Dump ship's entire track history